sensor_id;sensor_type;location;lat;lon;timestamp;temperature;humidity
23681;DHT22;62915;50.832;4.462;2022-12-11T00:01:35;3.10;99.90
23681;DHT22;62915;50.832;4.462;2022-12-11T00:04:00;3.20;99.90
23681;DHT22;62915;50.832;4.462;2022-12-11T00:06:26;3.10;99.90
23681;DHT22;62915;50.832;4.462;2022-12-11T00:08:53;3.10;99.90
23681;DHT22;62915;50.832;4.462;2022-12-11T00:11:19;3.20;99.90
23681;DHT22;62915;50.832;4.462;2022-12-11T00:13:45;3.30;99.90
23681;DHT22;62915;50.832;4.462;2022-12-11T00:16:11;3.10;99.90
23681;DHT22;62915;50.832;4.462;2022-12-11T00:18:36;3.00;99.90
23681;DHT22;62915;50.832;4.462;2022-12-11T00:21:04;3.00;99.90
23681;DHT22;62915;50.832;4.462;2022-12-11T00:23:30;3.00;99.90
23681;DHT22;62915;50.832;4.462;2022-12-11T00:25:57;3.20;99.90
23681;DHT22;62915;50.832;4.462;2022-12-11T00:28:22;3.10;99.90
23681;DHT22;62915;50.832;4.462;2022-12-11T00:30:53;3.20;99.90
23681;DHT22;62915;50.832;4.462;2022-12-11T00:33:18;3.30;99.90
23681;DHT22;62915;50.832;4.462;2022-12-11T00:35:46;3.30;99.90
23681;DHT22;62915;50.832;4.462;2022-12-11T00:38:16;3.40;99.90
23681;DHT22;62915;50.832;4.462;2022-12-11T00:40:42;3.50;99.90
23681;DHT22;62915;50.832;4.462;2022-12-11T00:43:08;3.30;99.90
23681;DHT22;62915;50.832;4.462;2022-12-11T00:45:36;3.20;99.90
23681;DHT22;62915;50.832;4.462;2022-12-11T00:48:02;3.30;99.90
23681;DHT22;62915;50.832;4.462;2022-12-11T00:50:28;3.30;99.90
23681;DHT22;62915;50.832;4.462;2022-12-11T00:52:53;3.20;99.90
23681;DHT22;62915;50.832;4.462;2022-12-11T00:55:19;3.20;99.90
23681;DHT22;62915;50.832;4.462;2022-12-11T00:57:45;3.40;99.90
23681;DHT22;62915;50.832;4.462;2022-12-11T01:00:12;3.40;99.90
23681;DHT22;62915;50.832;4.462;2022-12-11T01:02:38;3.50;99.90
23681;DHT22;62915;50.832;4.462;2022-12-11T01:05:04;3.50;99.90
23681;DHT22;62915;50.832;4.462;2022-12-11T01:07:29;3.50;99.90
23681;DHT22;62915;50.832;4.462;2022-12-11T01:09:55;3.40;99.90
23681;DHT22;62915;50.832;4.462;2022-12-11T01:12:39;3.30;99.90
23681;DHT22;62915;50.832;4.462;2022-12-11T01:15:05;3.30;99.90
23681;DHT22;62915;50.832;4.462;2022-12-11T01:17:32;3.20;99.90
23681;DHT22;62915;50.832;4.462;2022-12-11T01:19:58;3.40;99.90
23681;DHT22;62915;50.832;4.462;2022-12-11T01:22:23;3.30;99.90
23681;DHT22;62915;50.832;4.462;2022-12-11T01:24:49;3.30;99.90
23681;DHT22;62915;50.832;4.462;2022-12-11T01:27:15;3.30;99.90
23681;DHT22;62915;50.832;4.462;2022-12-11T01:29:40;3.20;99.90
23681;DHT22;62915;50.832;4.462;2022-12-11T01:32:06;3.40;99.90
23681;DHT22;62915;50.832;4.462;2022-12-11T01:34:32;3.40;99.90
23681;DHT22;62915;50.832;4.462;2022-12-11T01:36:58;3.30;99.90
23681;DHT22;62915;50.832;4.462;2022-12-11T01:39:23;3.20;99.90
23681;DHT22;62915;50.832;4.462;2022-12-11T01:41:49;3.30;99.90
23681;DHT22;62915;50.832;4.462;2022-12-11T01:46:41;3.40;99.90
23681;DHT22;62915;50.832;4.462;2022-12-11T01:49:11;3.40;99.90
23681;DHT22;62915;50.832;4.462;2022-12-11T01:51:52;3.50;99.90
23681;DHT22;62915;50.832;4.462;2022-12-11T01:54:21;3.50;99.90
23681;DHT22;62915;50.832;4.462;2022-12-11T01:56:50;3.60;99.90
23681;DHT22;62915;50.832;4.462;2022-12-11T01:59:19;3.40;99.90
23681;DHT22;62915;50.832;4.462;2022-12-11T02:04:26;3.30;99.90
23681;DHT22;62915;50.832;4.462;2022-12-11T02:06:53;3.40;99.90
23681;DHT22;62915;50.832;4.462;2022-12-11T02:09:25;3.40;99.90
23681;DHT22;62915;50.832;4.462;2022-12-11T02:12:01;3.50;99.90
23681;DHT22;62915;50.832;4.462;2022-12-11T02:27:46;3.30;99.90
23681;DHT22;62915;50.832;4.462;2022-12-11T02:30:15;3.40;99.90
23681;DHT22;62915;50.832;4.462;2022-12-11T02:32:45;3.40;99.90
23681;DHT22;62915;50.832;4.462;2022-12-11T02:35:30;3.50;99.90
23681;DHT22;62915;50.832;4.462;2022-12-11T02:38:02;3.50;99.90
23681;DHT22;62915;50.832;4.462;2022-12-11T02:40:31;3.40;99.90
23681;DHT22;62915;50.832;4.462;2022-12-11T02:43:02;3.30;99.90
23681;DHT22;62915;50.832;4.462;2022-12-11T02:45:29;3.20;99.90
23681;DHT22;62915;50.832;4.462;2022-12-11T02:47:57;3.40;99.90
23681;DHT22;62915;50.832;4.462;2022-12-11T02:50:26;3.40;99.90
23681;DHT22;62915;50.832;4.462;2022-12-11T02:52:54;3.40;99.90
23681;DHT22;62915;50.832;4.462;2022-12-11T02:55:22;3.40;99.90
23681;DHT22;62915;50.832;4.462;2022-12-11T02:58:00;3.40;99.90
23681;DHT22;62915;50.832;4.462;2022-12-11T03:00:26;3.40;99.90
23681;DHT22;62915;50.832;4.462;2022-12-11T03:02:52;3.50;99.90
23681;DHT22;62915;50.832;4.462;2022-12-11T03:05:18;3.60;99.90
23681;DHT22;62915;50.832;4.462;2022-12-11T03:07:44;3.60;99.90
23681;DHT22;62915;50.832;4.462;2022-12-11T03:10:12;3.40;99.90
23681;DHT22;62915;50.832;4.462;2022-12-11T03:12:42;3.40;99.90
23681;DHT22;62915;50.832;4.462;2022-12-11T03:15:13;3.40;99.90
23681;DHT22;62915;50.832;4.462;2022-12-11T03:23:18;3.40;99.90
23681;DHT22;62915;50.832;4.462;2022-12-11T03:28:30;3.30;99.90
23681;DHT22;62915;50.832;4.462;2022-12-11T03:30:57;3.20;99.90
23681;DHT22;62915;50.832;4.462;2022-12-11T03:33:33;3.10;99.90
23681;DHT22;62915;50.832;4.462;2022-12-11T03:36:29;3.00;99.90
23681;DHT22;62915;50.832;4.462;2022-12-11T03:39:01;3.10;99.90
23681;DHT22;62915;50.832;4.462;2022-12-11T03:41:29;3.10;99.90
23681;DHT22;62915;50.832;4.462;2022-12-11T03:43:57;3.00;99.90
23681;DHT22;62915;50.832;4.462;2022-12-11T03:46:29;3.10;99.90
23681;DHT22;62915;50.832;4.462;2022-12-11T03:49:00;3.10;99.90
23681;DHT22;62915;50.832;4.462;2022-12-11T03:51:28;3.20;99.90
23681;DHT22;62915;50.832;4.462;2022-12-11T03:53:56;3.30;99.90
23681;DHT22;62915;50.832;4.462;2022-12-11T03:56:23;3.30;99.90
23681;DHT22;62915;50.832;4.462;2022-12-11T03:58:51;3.40;99.90
23681;DHT22;62915;50.832;4.462;2022-12-11T04:01:16;3.30;99.90
23681;DHT22;62915;50.832;4.462;2022-12-11T04:03:42;3.30;99.90
23681;DHT22;62915;50.832;4.462;2022-12-11T04:06:08;3.20;99.90
23681;DHT22;62915;50.832;4.462;2022-12-11T04:08:33;3.30;99.90
23681;DHT22;62915;50.832;4.462;2022-12-11T04:11:01;3.30;99.90
23681;DHT22;62915;50.832;4.462;2022-12-11T04:13:45;3.30;99.90
23681;DHT22;62915;50.832;4.462;2022-12-11T04:16:31;3.40;99.90
23681;DHT22;62915;50.832;4.462;2022-12-11T04:18:57;3.50;99.90
23681;DHT22;62915;50.832;4.462;2022-12-11T04:21:41;3.60;99.90
23681;DHT22;62915;50.832;4.462;2022-12-11T04:24:25;3.40;99.90
23681;DHT22;62915;50.832;4.462;2022-12-11T04:26:50;3.40;99.90
23681;DHT22;62915;50.832;4.462;2022-12-11T04:29:16;3.50;99.90
23681;DHT22;62915;50.832;4.462;2022-12-11T04:31:41;3.50;99.90
23681;DHT22;62915;50.832;4.462;2022-12-11T04:34:08;3.40;99.90
23681;DHT22;62915;50.832;4.462;2022-12-11T04:36:34;3.40;99.90
23681;DHT22;62915;50.832;4.462;2022-12-11T04:39:00;3.50;99.90
23681;DHT22;62915;50.832;4.462;2022-12-11T04:41:26;3.50;99.90
23681;DHT22;62915;50.832;4.462;2022-12-11T04:43:51;3.50;99.90
23681;DHT22;62915;50.832;4.462;2022-12-11T04:46:19;3.40;99.90
23681;DHT22;62915;50.832;4.462;2022-12-11T04:48:46;3.50;99.90
23681;DHT22;62915;50.832;4.462;2022-12-11T04:51:12;3.50;99.90
23681;DHT22;62915;50.832;4.462;2022-12-11T04:53:39;3.50;99.90
23681;DHT22;62915;50.832;4.462;2022-12-11T04:56:06;3.40;99.90
23681;DHT22;62915;50.832;4.462;2022-12-11T04:58:32;3.30;99.90
23681;DHT22;62915;50.832;4.462;2022-12-11T05:00:57;3.30;99.90
23681;DHT22;62915;50.832;4.462;2022-12-11T05:03:23;3.30;99.90
23681;DHT22;62915;50.832;4.462;2022-12-11T05:05:50;3.30;99.90
23681;DHT22;62915;50.832;4.462;2022-12-11T05:08:20;3.40;99.90
23681;DHT22;62915;50.832;4.462;2022-12-11T05:10:58;3.30;99.90
23681;DHT22;62915;50.832;4.462;2022-12-11T05:13:25;3.30;99.90
23681;DHT22;62915;50.832;4.462;2022-12-11T05:15:51;3.30;99.90
23681;DHT22;62915;50.832;4.462;2022-12-11T05:18:16;3.20;99.90
23681;DHT22;62915;50.832;4.462;2022-12-11T05:20:42;3.30;99.90
23681;DHT22;62915;50.832;4.462;2022-12-11T05:23:08;3.20;99.90
23681;DHT22;62915;50.832;4.462;2022-12-11T05:25:33;3.30;99.90
23681;DHT22;62915;50.832;4.462;2022-12-11T05:27:59;3.30;99.90
23681;DHT22;62915;50.832;4.462;2022-12-11T05:30:25;3.50;99.90
23681;DHT22;62915;50.832;4.462;2022-12-11T05:32:51;3.50;99.90
23681;DHT22;62915;50.832;4.462;2022-12-11T05:35:16;3.50;99.90
23681;DHT22;62915;50.832;4.462;2022-12-11T05:37:42;3.40;99.90
23681;DHT22;62915;50.832;4.462;2022-12-11T05:40:09;3.50;99.90
23681;DHT22;62915;50.832;4.462;2022-12-11T05:42:37;3.50;99.90
23681;DHT22;62915;50.832;4.462;2022-12-11T05:45:03;3.40;99.90
23681;DHT22;62915;50.832;4.462;2022-12-11T05:47:30;3.30;99.90
23681;DHT22;62915;50.832;4.462;2022-12-11T05:49:56;3.30;99.90
23681;DHT22;62915;50.832;4.462;2022-12-11T05:52:21;3.30;99.90
23681;DHT22;62915;50.832;4.462;2022-12-11T05:54:48;3.40;99.90
23681;DHT22;62915;50.832;4.462;2022-12-11T05:57:15;3.30;99.90
23681;DHT22;62915;50.832;4.462;2022-12-11T05:59:40;3.30;99.90
23681;DHT22;62915;50.832;4.462;2022-12-11T06:02:06;3.50;99.90
23681;DHT22;62915;50.832;4.462;2022-12-11T06:04:32;3.50;99.90
23681;DHT22;62915;50.832;4.462;2022-12-11T06:06:58;3.60;99.90
23681;DHT22;62915;50.832;4.462;2022-12-11T06:09:23;3.50;99.90
23681;DHT22;62915;50.832;4.462;2022-12-11T06:11:49;3.40;99.90
23681;DHT22;62915;50.832;4.462;2022-12-11T06:14:15;3.40;99.90
23681;DHT22;62915;50.832;4.462;2022-12-11T06:16:40;3.40;99.90
23681;DHT22;62915;50.832;4.462;2022-12-11T06:19:06;3.50;99.90
23681;DHT22;62915;50.832;4.462;2022-12-11T06:21:37;3.40;99.90
23681;DHT22;62915;50.832;4.462;2022-12-11T06:24:03;3.30;99.90
23681;DHT22;62915;50.832;4.462;2022-12-11T06:26:30;3.20;99.90
23681;DHT22;62915;50.832;4.462;2022-12-11T06:28:56;3.30;99.90
23681;DHT22;62915;50.832;4.462;2022-12-11T06:31:23;3.30;99.90
23681;DHT22;62915;50.832;4.462;2022-12-11T06:33:49;3.30;99.90
23681;DHT22;62915;50.832;4.462;2022-12-11T06:36:17;3.10;99.90
23681;DHT22;62915;50.832;4.462;2022-12-11T06:38:44;3.10;99.90
23681;DHT22;62915;50.832;4.462;2022-12-11T06:41:10;3.10;99.90
23681;DHT22;62915;50.832;4.462;2022-12-11T06:43:37;3.00;99.90
23681;DHT22;62915;50.832;4.462;2022-12-11T06:46:10;3.10;99.90
23681;DHT22;62915;50.832;4.462;2022-12-11T06:48:36;3.10;99.90
23681;DHT22;62915;50.832;4.462;2022-12-11T06:51:11;3.00;99.90
23681;DHT22;62915;50.832;4.462;2022-12-11T06:53:37;3.00;99.90
23681;DHT22;62915;50.832;4.462;2022-12-11T06:56:09;3.00;99.90
23681;DHT22;62915;50.832;4.462;2022-12-11T06:58:35;3.10;99.90
23681;DHT22;62915;50.832;4.462;2022-12-11T07:01:02;3.10;99.90
23681;DHT22;62915;50.832;4.462;2022-12-11T07:03:28;3.20;99.90
23681;DHT22;62915;50.832;4.462;2022-12-11T07:05:53;3.40;99.90
23681;DHT22;62915;50.832;4.462;2022-12-11T07:08:23;3.30;99.90
23681;DHT22;62915;50.832;4.462;2022-12-11T07:10:49;3.40;99.90
23681;DHT22;62915;50.832;4.462;2022-12-11T07:13:14;3.40;99.90
23681;DHT22;62915;50.832;4.462;2022-12-11T07:15:40;3.40;99.90
23681;DHT22;62915;50.832;4.462;2022-12-11T07:18:06;3.20;99.90
23681;DHT22;62915;50.832;4.462;2022-12-11T07:20:31;3.10;99.90
23681;DHT22;62915;50.832;4.462;2022-12-11T07:22:57;3.10;99.90
23681;DHT22;62915;50.832;4.462;2022-12-11T07:25:23;3.10;99.90
23681;DHT22;62915;50.832;4.462;2022-12-11T07:27:48;3.20;99.90
23681;DHT22;62915;50.832;4.462;2022-12-11T07:30:14;3.20;99.90
23681;DHT22;62915;50.832;4.462;2022-12-11T07:32:40;3.10;99.90
23681;DHT22;62915;50.832;4.462;2022-12-11T07:35:06;3.10;99.90
23681;DHT22;62915;50.832;4.462;2022-12-11T07:37:31;3.10;99.90
23681;DHT22;62915;50.832;4.462;2022-12-11T07:39:57;3.20;99.90
23681;DHT22;62915;50.832;4.462;2022-12-11T07:42:23;3.10;99.90
23681;DHT22;62915;50.832;4.462;2022-12-11T07:44:48;3.10;99.90
23681;DHT22;62915;50.832;4.462;2022-12-11T07:47:14;3.20;99.90
23681;DHT22;62915;50.832;4.462;2022-12-11T07:49:40;3.20;99.90
23681;DHT22;62915;50.832;4.462;2022-12-11T07:52:05;3.10;99.90
23681;DHT22;62915;50.832;4.462;2022-12-11T07:54:31;3.10;99.90
23681;DHT22;62915;50.832;4.462;2022-12-11T07:56:57;3.10;99.90
23681;DHT22;62915;50.832;4.462;2022-12-11T07:59:22;3.10;99.90
23681;DHT22;62915;50.832;4.462;2022-12-11T08:01:48;3.20;99.90
23681;DHT22;62915;50.832;4.462;2022-12-11T08:04:14;3.30;99.90
23681;DHT22;62915;50.832;4.462;2022-12-11T08:06:40;3.30;99.90
23681;DHT22;62915;50.832;4.462;2022-12-11T08:09:09;3.20;99.90
23681;DHT22;62915;50.832;4.462;2022-12-11T08:11:35;3.30;99.90
23681;DHT22;62915;50.832;4.462;2022-12-11T08:14:01;3.20;99.90
23681;DHT22;62915;50.832;4.462;2022-12-11T08:16:28;3.20;99.90
23681;DHT22;62915;50.832;4.462;2022-12-11T08:18:54;3.30;99.90
23681;DHT22;62915;50.832;4.462;2022-12-11T08:21:25;3.10;99.90
23681;DHT22;62915;50.832;4.462;2022-12-11T08:23:52;3.10;99.90
23681;DHT22;62915;50.832;4.462;2022-12-11T08:26:29;3.10;99.90
23681;DHT22;62915;50.832;4.462;2022-12-11T08:28:55;3.20;99.90
23681;DHT22;62915;50.832;4.462;2022-12-11T08:31:22;3.20;99.90
23681;DHT22;62915;50.832;4.462;2022-12-11T08:33:48;3.10;99.90
23681;DHT22;62915;50.832;4.462;2022-12-11T08:36:17;2.90;99.90
23681;DHT22;62915;50.832;4.462;2022-12-11T08:38:43;3.00;99.90
23681;DHT22;62915;50.832;4.462;2022-12-11T08:41:20;3.20;99.90
23681;DHT22;62915;50.832;4.462;2022-12-11T08:43:46;3.30;99.90
23681;DHT22;62915;50.832;4.462;2022-12-11T08:46:13;3.30;99.90
23681;DHT22;62915;50.832;4.462;2022-12-11T08:48:40;3.30;99.90
23681;DHT22;62915;50.832;4.462;2022-12-11T08:51:09;3.20;99.90
23681;DHT22;62915;50.832;4.462;2022-12-11T08:53:35;3.00;99.90
23681;DHT22;62915;50.832;4.462;2022-12-11T08:56:06;2.90;99.90
23681;DHT22;62915;50.832;4.462;2022-12-11T08:58:32;2.90;99.90
23681;DHT22;62915;50.832;4.462;2022-12-11T09:00:58;2.90;99.90
23681;DHT22;62915;50.832;4.462;2022-12-11T09:03:24;2.90;99.90
23681;DHT22;62915;50.832;4.462;2022-12-11T09:05:50;2.90;99.90
23681;DHT22;62915;50.832;4.462;2022-12-11T09:08:16;3.10;99.90
23681;DHT22;62915;50.832;4.462;2022-12-11T09:10:41;3.10;99.90
23681;DHT22;62915;50.832;4.462;2022-12-11T09:13:07;3.10;99.90
23681;DHT22;62915;50.832;4.462;2022-12-11T09:15:33;3.20;99.90
23681;DHT22;62915;50.832;4.462;2022-12-11T09:17:58;3.10;99.90
23681;DHT22;62915;50.832;4.462;2022-12-11T09:20:24;3.30;99.90
23681;DHT22;62915;50.832;4.462;2022-12-11T09:22:50;3.30;99.90
23681;DHT22;62915;50.832;4.462;2022-12-11T09:25:15;3.30;99.90
23681;DHT22;62915;50.832;4.462;2022-12-11T09:27:41;3.40;99.90
23681;DHT22;62915;50.832;4.462;2022-12-11T09:30:07;3.40;99.90
23681;DHT22;62915;50.832;4.462;2022-12-11T09:32:33;3.40;99.90
23681;DHT22;62915;50.832;4.462;2022-12-11T09:34:58;3.40;99.90
23681;DHT22;62915;50.832;4.462;2022-12-11T09:37:24;3.40;99.90
23681;DHT22;62915;50.832;4.462;2022-12-11T09:39:50;3.40;99.90
23681;DHT22;62915;50.832;4.462;2022-12-11T09:42:26;3.30;99.90
23681;DHT22;62915;50.832;4.462;2022-12-11T09:45:01;3.30;99.90
23681;DHT22;62915;50.832;4.462;2022-12-11T09:47:37;3.30;99.90
23681;DHT22;62915;50.832;4.462;2022-12-11T09:55:05;3.10;99.90
23681;DHT22;62915;50.832;4.462;2022-12-11T10:00:19;3.10;99.90
23681;DHT22;62915;50.832;4.462;2022-12-11T10:03:05;3.20;99.90
23681;DHT22;62915;50.832;4.462;2022-12-11T10:16:51;3.40;99.90
23681;DHT22;62915;50.832;4.462;2022-12-11T10:19:28;3.50;99.90
23681;DHT22;62915;50.832;4.462;2022-12-11T10:21:55;3.50;99.90
23681;DHT22;62915;50.832;4.462;2022-12-11T10:24:41;3.60;99.90
23681;DHT22;62915;50.832;4.462;2022-12-11T10:27:20;3.70;99.90
23681;DHT22;62915;50.832;4.462;2022-12-11T10:30:21;3.60;99.90
23681;DHT22;62915;50.832;4.462;2022-12-11T10:35:35;3.60;99.90
23681;DHT22;62915;50.832;4.462;2022-12-11T10:40:37;3.40;99.90
23681;DHT22;62915;50.832;4.462;2022-12-11T10:43:04;3.50;99.90
23681;DHT22;62915;50.832;4.462;2022-12-11T10:45:29;3.50;99.90
23681;DHT22;62915;50.832;4.462;2022-12-11T10:48:09;3.50;99.90
23681;DHT22;62915;50.832;4.462;2022-12-11T10:50:35;3.50;99.90
23681;DHT22;62915;50.832;4.462;2022-12-11T10:53:02;3.60;99.90
23681;DHT22;62915;50.832;4.462;2022-12-11T10:55:32;3.60;99.90
23681;DHT22;62915;50.832;4.462;2022-12-11T10:58:04;3.60;99.90
23681;DHT22;62915;50.832;4.462;2022-12-11T11:00:36;3.60;99.90
23681;DHT22;62915;50.832;4.462;2022-12-11T11:03:04;3.60;99.90
23681;DHT22;62915;50.832;4.462;2022-12-11T11:05:35;3.60;99.90
23681;DHT22;62915;50.832;4.462;2022-12-11T11:08:12;3.60;99.90
23681;DHT22;62915;50.832;4.462;2022-12-11T11:10:55;3.70;99.90
23681;DHT22;62915;50.832;4.462;2022-12-11T11:13:30;3.70;99.90
23681;DHT22;62915;50.832;4.462;2022-12-11T11:16:02;3.90;99.90
23681;DHT22;62915;50.832;4.462;2022-12-11T11:18:29;4.00;99.90
23681;DHT22;62915;50.832;4.462;2022-12-11T11:20:56;4.00;99.90
23681;DHT22;62915;50.832;4.462;2022-12-11T11:23:23;4.10;99.90
23681;DHT22;62915;50.832;4.462;2022-12-11T11:25:51;4.40;99.90
23681;DHT22;62915;50.832;4.462;2022-12-11T11:28:20;4.80;99.90
23681;DHT22;62915;50.832;4.462;2022-12-11T11:31:06;4.90;99.90
23681;DHT22;62915;50.832;4.462;2022-12-11T11:33:34;5.10;99.90
23681;DHT22;62915;50.832;4.462;2022-12-11T11:36:16;5.20;99.90
23681;DHT22;62915;50.832;4.462;2022-12-11T11:44:37;5.40;99.90
23681;DHT22;62915;50.832;4.462;2022-12-11T11:47:32;5.60;99.90
23681;DHT22;62915;50.832;4.462;2022-12-11T11:50:00;5.90;99.90
23681;DHT22;62915;50.832;4.462;2022-12-11T11:52:33;6.00;99.90
23681;DHT22;62915;50.832;4.462;2022-12-11T11:55:23;6.10;99.90
23681;DHT22;62915;50.832;4.462;2022-12-11T11:57:57;5.90;99.90
23681;DHT22;62915;50.832;4.462;2022-12-11T12:00:28;5.80;99.90
23681;DHT22;62915;50.832;4.462;2022-12-11T12:03:15;5.60;99.90
23681;DHT22;62915;50.832;4.462;2022-12-11T12:06:06;5.60;99.90
23681;DHT22;62915;50.832;4.462;2022-12-11T12:14:15;5.20;99.90
23681;DHT22;62915;50.832;4.462;2022-12-11T12:19:58;4.90;99.90
23681;DHT22;62915;50.832;4.462;2022-12-11T12:22:52;4.90;99.90
23681;DHT22;62915;50.832;4.462;2022-12-11T12:25:31;4.90;99.90
23681;DHT22;62915;50.832;4.462;2022-12-11T12:37:06;4.80;99.90
23681;DHT22;62915;50.832;4.462;2022-12-11T12:42:49;4.60;99.90
23681;DHT22;62915;50.832;4.462;2022-12-11T12:47:41;4.60;99.90
23681;DHT22;62915;50.832;4.462;2022-12-11T12:50:15;4.20;99.90
23681;DHT22;62915;50.832;4.462;2022-12-11T12:52:41;4.10;99.90
23681;DHT22;62915;50.832;4.462;2022-12-11T12:55:28;4.20;99.90
23681;DHT22;62915;50.832;4.462;2022-12-11T12:57:57;4.20;99.90
23681;DHT22;62915;50.832;4.462;2022-12-11T13:03:17;4.10;99.90
23681;DHT22;62915;50.832;4.462;2022-12-11T13:06:03;4.20;99.90
23681;DHT22;62915;50.832;4.462;2022-12-11T13:11:05;4.30;99.90
23681;DHT22;62915;50.832;4.462;2022-12-11T13:13:42;4.40;99.90
23681;DHT22;62915;50.832;4.462;2022-12-11T13:16:24;4.30;99.90
23681;DHT22;62915;50.832;4.462;2022-12-11T13:18:50;4.20;99.90
23681;DHT22;62915;50.832;4.462;2022-12-11T13:23:55;4.20;99.90
23681;DHT22;62915;50.832;4.462;2022-12-11T13:26:32;4.20;99.90
23681;DHT22;62915;50.832;4.462;2022-12-11T13:28:58;4.20;99.90
23681;DHT22;62915;50.832;4.462;2022-12-11T13:31:34;4.10;99.90
23681;DHT22;62915;50.832;4.462;2022-12-11T13:34:16;4.20;99.90
23681;DHT22;62915;50.832;4.462;2022-12-11T13:36:50;4.20;99.90
23681;DHT22;62915;50.832;4.462;2022-12-11T13:39:29;4.10;99.90
23681;DHT22;62915;50.832;4.462;2022-12-11T13:41:58;4.10;99.90
23681;DHT22;62915;50.832;4.462;2022-12-11T13:44:30;4.10;99.90
23681;DHT22;62915;50.832;4.462;2022-12-11T13:46:59;4.10;99.90
23681;DHT22;62915;50.832;4.462;2022-12-11T13:49:31;4.00;99.90
23681;DHT22;62915;50.832;4.462;2022-12-11T13:51:59;4.10;99.90
23681;DHT22;62915;50.832;4.462;2022-12-11T13:54:27;4.00;99.90
23681;DHT22;62915;50.832;4.462;2022-12-11T13:57:00;4.10;99.90
23681;DHT22;62915;50.832;4.462;2022-12-11T13:59:37;4.10;99.90
23681;DHT22;62915;50.832;4.462;2022-12-11T14:02:23;4.10;99.90
23681;DHT22;62915;50.832;4.462;2022-12-11T14:04:50;4.20;99.90
23681;DHT22;62915;50.832;4.462;2022-12-11T14:07:24;4.20;99.90
23681;DHT22;62915;50.832;4.462;2022-12-11T14:09:52;4.20;99.90
23681;DHT22;62915;50.832;4.462;2022-12-11T14:12:21;4.10;99.90
23681;DHT22;62915;50.832;4.462;2022-12-11T14:14:54;4.00;99.90
23681;DHT22;62915;50.832;4.462;2022-12-11T14:17:29;4.10;99.90
23681;DHT22;62915;50.832;4.462;2022-12-11T14:19:58;4.10;99.90
23681;DHT22;62915;50.832;4.462;2022-12-11T14:22:26;4.20;99.90
23681;DHT22;62915;50.832;4.462;2022-12-11T14:24:54;4.20;99.90
23681;DHT22;62915;50.832;4.462;2022-12-11T14:27:22;4.20;99.90
23681;DHT22;62915;50.832;4.462;2022-12-11T14:29:48;4.10;99.90
23681;DHT22;62915;50.832;4.462;2022-12-11T14:34:55;4.10;99.90
23681;DHT22;62915;50.832;4.462;2022-12-11T14:37:22;4.10;99.90
23681;DHT22;62915;50.832;4.462;2022-12-11T14:39:56;4.10;99.90
23681;DHT22;62915;50.832;4.462;2022-12-11T14:42:25;4.00;99.90
23681;DHT22;62915;50.832;4.462;2022-12-11T14:44:55;4.00;99.90
23681;DHT22;62915;50.832;4.462;2022-12-11T14:47:25;4.00;99.90
23681;DHT22;62915;50.832;4.462;2022-12-11T14:50:08;4.00;99.90
23681;DHT22;62915;50.832;4.462;2022-12-11T14:52:47;4.00;99.90
23681;DHT22;62915;50.832;4.462;2022-12-11T14:55:23;3.90;99.90
23681;DHT22;62915;50.832;4.462;2022-12-11T14:57:54;3.90;99.90
23681;DHT22;62915;50.832;4.462;2022-12-11T15:00:27;3.90;99.90
23681;DHT22;62915;50.832;4.462;2022-12-11T15:05:49;4.10;99.90
23681;DHT22;62915;50.832;4.462;2022-12-11T15:08:18;4.00;99.90
23681;DHT22;62915;50.832;4.462;2022-12-11T15:11:08;4.10;99.90
23681;DHT22;62915;50.832;4.462;2022-12-11T15:13:38;4.10;99.90
23681;DHT22;62915;50.832;4.462;2022-12-11T15:16:13;4.00;99.90
23681;DHT22;62915;50.832;4.462;2022-12-11T15:18:40;4.00;99.90
23681;DHT22;62915;50.832;4.462;2022-12-11T15:21:09;4.00;99.90
23681;DHT22;62915;50.832;4.462;2022-12-11T15:23:50;4.10;99.90
23681;DHT22;62915;50.832;4.462;2022-12-11T15:26:30;4.00;99.90
23681;DHT22;62915;50.832;4.462;2022-12-11T15:29:01;4.10;99.90
23681;DHT22;62915;50.832;4.462;2022-12-11T15:31:30;4.10;99.90
23681;DHT22;62915;50.832;4.462;2022-12-11T15:33:56;4.20;99.90
23681;DHT22;62915;50.832;4.462;2022-12-11T15:36:34;4.20;99.90
23681;DHT22;62915;50.832;4.462;2022-12-11T15:39:00;4.20;99.90
23681;DHT22;62915;50.832;4.462;2022-12-11T15:41:26;4.30;99.90
23681;DHT22;62915;50.832;4.462;2022-12-11T15:43:54;4.30;99.90
23681;DHT22;62915;50.832;4.462;2022-12-11T15:46:21;4.30;99.90
23681;DHT22;62915;50.832;4.462;2022-12-11T15:48:48;4.40;99.90
23681;DHT22;62915;50.832;4.462;2022-12-11T15:51:14;4.30;99.90
23681;DHT22;62915;50.832;4.462;2022-12-11T15:53:40;4.30;99.90
23681;DHT22;62915;50.832;4.462;2022-12-11T15:56:06;4.30;99.90
23681;DHT22;62915;50.832;4.462;2022-12-11T15:58:34;4.30;99.90
23681;DHT22;62915;50.832;4.462;2022-12-11T16:01:00;4.20;99.90
23681;DHT22;62915;50.832;4.462;2022-12-11T16:03:25;4.30;99.90
23681;DHT22;62915;50.832;4.462;2022-12-11T16:05:52;4.30;99.90
23681;DHT22;62915;50.832;4.462;2022-12-11T16:08:21;4.30;99.90
23681;DHT22;62915;50.832;4.462;2022-12-11T16:10:47;4.30;99.90
23681;DHT22;62915;50.832;4.462;2022-12-11T16:13:13;4.30;99.90
23681;DHT22;62915;50.832;4.462;2022-12-11T16:15:44;4.30;99.90
23681;DHT22;62915;50.832;4.462;2022-12-11T16:18:13;4.30;99.90
23681;DHT22;62915;50.832;4.462;2022-12-11T16:20:41;4.20;99.90
23681;DHT22;62915;50.832;4.462;2022-12-11T16:23:08;4.20;99.90
23681;DHT22;62915;50.832;4.462;2022-12-11T16:25:42;4.20;99.90
23681;DHT22;62915;50.832;4.462;2022-12-11T16:28:10;4.20;99.90
23681;DHT22;62915;50.832;4.462;2022-12-11T16:30:37;4.30;99.90
23681;DHT22;62915;50.832;4.462;2022-12-11T16:33:04;4.30;99.90
23681;DHT22;62915;50.832;4.462;2022-12-11T16:35:29;4.30;99.90
23681;DHT22;62915;50.832;4.462;2022-12-11T16:37:55;4.20;99.90
23681;DHT22;62915;50.832;4.462;2022-12-11T16:40:21;4.20;99.90
23681;DHT22;62915;50.832;4.462;2022-12-11T16:42:48;4.20;99.90
23681;DHT22;62915;50.832;4.462;2022-12-11T16:45:19;4.20;99.90
23681;DHT22;62915;50.832;4.462;2022-12-11T16:47:45;4.10;99.90
23681;DHT22;62915;50.832;4.462;2022-12-11T16:50:11;4.10;99.90
23681;DHT22;62915;50.832;4.462;2022-12-11T16:52:38;4.20;99.90
23681;DHT22;62915;50.832;4.462;2022-12-11T16:55:04;4.10;99.90
23681;DHT22;62915;50.832;4.462;2022-12-11T16:57:30;4.20;99.90
23681;DHT22;62915;50.832;4.462;2022-12-11T16:59:56;4.20;99.90
23681;DHT22;62915;50.832;4.462;2022-12-11T17:02:21;4.20;99.90
23681;DHT22;62915;50.832;4.462;2022-12-11T17:04:47;4.20;99.90
23681;DHT22;62915;50.832;4.462;2022-12-11T17:07:13;4.10;99.90
23681;DHT22;62915;50.832;4.462;2022-12-11T17:09:40;4.20;99.90
23681;DHT22;62915;50.832;4.462;2022-12-11T17:12:06;4.20;99.90
23681;DHT22;62915;50.832;4.462;2022-12-11T17:14:32;4.20;99.90
23681;DHT22;62915;50.832;4.462;2022-12-11T17:16:58;4.10;99.90
23681;DHT22;62915;50.832;4.462;2022-12-11T17:19:24;4.00;99.90
23681;DHT22;62915;50.832;4.462;2022-12-11T17:21:49;4.10;99.90
23681;DHT22;62915;50.832;4.462;2022-12-11T17:24:16;4.10;99.90
23681;DHT22;62915;50.832;4.462;2022-12-11T17:26:42;4.00;99.90
23681;DHT22;62915;50.832;4.462;2022-12-11T17:29:28;4.00;99.90
23681;DHT22;62915;50.832;4.462;2022-12-11T17:31:54;4.00;99.90